Time;durP1;ratioP1;P1;durP2;ratioP2;P2;SDS_P1;SDS_P2;PMS_P1;PMS_P2;Temp;Humidity;BMP_temperature;BMP_pressure;BME280_temperature;BME280_humidity;BME280_pressure;Samples;Min_cycle;Max_cycle;Signal;HPM_P1;HPM_P2
2023/06/08 00:00:18;;;;;;;7.55;2.40;;;;;;;11.13;100.00;101967.97;5109059;28;20043;-67
2023/06/08 00:02:46;;;;;;;5.47;2.03;;;;;;;11.19;100.00;101952.13;5105953;28;20131;-67
2023/06/08 00:05:13;;;;;;;5.80;2.00;;;;;;;11.32;100.00;101962.34;5107212;28;20050;-67
2023/06/08 00:07:43;;;;;;;6.68;2.20;;;;;;;11.39;100.00;101956.94;5094731;28;20465;-67
2023/06/08 00:10:10;;;;;;;7.00;2.72;;;;;;;11.33;100.00;101948.34;5109457;28;20048;-67
2023/06/08 00:12:37;;;;;;;7.28;2.70;;;;;;;11.12;100.00;101958.38;5109218;28;20674;-67
2023/06/08 00:15:06;;;;;;;5.90;2.20;;;;;;;11.11;100.00;101967.13;5109299;28;20075;-67
2023/06/08 00:17:33;;;;;;;6.78;2.35;;;;;;;11.10;100.00;101946.19;5112720;28;20048;-67
2023/06/08 00:20:00;;;;;;;5.60;2.33;;;;;;;11.11;100.00;101948.78;5113387;28;20059;-67
2023/06/08 00:22:27;;;;;;;6.78;2.22;;;;;;;11.00;100.00;101956.88;5110544;28;20448;-67
2023/06/08 00:24:54;;;;;;;6.18;1.90;;;;;;;10.89;100.00;101942.25;5113753;27;20457;-67
2023/06/08 00:27:21;;;;;;;6.72;2.35;;;;;;;10.87;100.00;101947.53;5099879;28;20055;-67
2023/06/08 00:29:47;;;;;;;8.18;2.60;;;;;;;10.80;100.00;101938.94;5108320;28;20400;-67
2023/06/08 00:32:14;;;;;;;4.93;1.90;;;;;;;10.99;100.00;101942.03;5109482;28;20408;-67
2023/06/08 00:34:41;;;;;;;5.07;1.83;;;;;;;11.07;100.00;101952.38;5110510;28;20062;-67
2023/06/08 00:37:07;;;;;;;5.70;2.15;;;;;;;11.07;100.00;101946.28;5110958;28;20049;-68
2023/06/08 00:39:34;;;;;;;6.32;2.15;;;;;;;10.99;100.00;101944.66;5096643;28;20404;-68
2023/06/08 00:42:01;;;;;;;5.53;2.10;;;;;;;10.89;100.00;101932.66;5105874;28;20058;-68
2023/06/08 00:44:28;;;;;;;7.10;2.78;;;;;;;10.91;100.00;101932.63;5111263;28;20047;-68
2023/06/08 00:46:54;;;;;;;5.53;2.00;;;;;;;10.92;100.00;101939.56;5110202;28;20063;-68
2023/06/08 00:49:22;;;;;;;5.47;2.00;;;;;;;10.82;100.00;101920.56;5111232;28;20437;-67
2023/06/08 00:51:49;;;;;;;6.05;2.08;;;;;;;10.89;100.00;101929.13;5111959;28;20062;-67
2023/06/08 00:54:16;;;;;;;5.78;2.13;;;;;;;10.89;100.00;101931.75;5112576;28;20052;-66
2023/06/08 00:56:48;;;;;;;7.47;2.35;;;;;;;10.94;100.00;101936.03;5111989;28;20044;-67
2023/06/08 00:59:16;;;;;;;6.35;2.58;;;;;;;10.99;100.00;101935.94;5112102;28;20058;-67
2023/06/08 01:01:44;;;;;;;7.65;2.63;;;;;;;10.96;100.00;101915.91;5112323;28;20508;-67
2023/06/08 01:04:14;;;;;;;6.22;2.40;;;;;;;10.96;100.00;101930.75;5103901;28;20060;-67
2023/06/08 01:06:46;;;;;;;7.72;2.15;;;;;;;10.94;100.00;101933.41;5105450;28;20420;-67
2023/06/08 01:09:33;;;;;;;7.53;2.85;;;;;;;10.59;100.00;101931.47;5110474;28;20050;-67
2023/06/08 01:12:06;;;;;;;5.85;2.25;;;;;;;10.34;100.00;101928.41;5111235;28;20052;-67
2023/06/08 01:14:51;;;;;;;6.55;2.33;;;;;;;10.46;100.00;101928.19;5102971;28;20043;-67
2023/06/08 01:17:24;;;;;;;7.43;2.90;;;;;;;10.67;100.00;101919.09;5111102;28;20130;-67
2023/06/08 01:20:36;;;;;;;7.18;2.60;;;;;;;10.99;100.00;101926.31;5112163;28;20105;-67
2023/06/08 01:23:22;;;;;;;7.70;2.90;;;;;;;10.81;100.00;101929.31;5105784;28;20100;-68
2023/06/08 01:25:52;;;;;;;7.85;3.05;;;;;;;10.31;100.00;101886.56;5110851;28;20047;-68
2023/06/08 01:28:20;;;;;;;8.65;3.42;;;;;;;10.29;100.00;101911.88;5099182;28;20128;-68
2023/06/08 01:30:51;;;;;;;7.55;2.80;;;;;;;10.44;100.00;101925.59;5110324;27;20525;-68
2023/06/08 01:33:21;;;;;;;7.90;2.97;;;;;;;10.58;100.00;101908.78;5094531;28;20120;-68
2023/06/08 01:36:05;;;;;;;6.40;2.58;;;;;;;10.57;100.00;101914.91;5111241;27;20059;-68
2023/06/08 01:39:01;;;;;;;7.90;2.90;;;;;;;10.46;100.00;101917.72;5101417;28;20128;-68
2023/06/08 01:41:33;;;;;;;6.57;2.78;;;;;;;10.48;100.00;101915.94;5108865;28;20557;-68
2023/06/08 01:44:01;;;;;;;6.93;2.53;;;;;;;10.45;100.00;101916.00;5101797;28;20051;-68
2023/06/08 01:46:30;;;;;;;6.90;2.45;;;;;;;10.51;100.00;101915.88;5110976;28;20040;-68
2023/06/08 01:49:01;;;;;;;7.85;2.92;;;;;;;10.49;100.00;101898.50;5111820;28;20450;-68
2023/06/08 01:51:30;;;;;;;9.35;3.08;;;;;;;10.38;100.00;101886.47;5109039;28;20043;-68
2023/06/08 01:54:04;;;;;;;11.32;3.38;;;;;;;10.55;100.00;101914.97;5105128;28;20058;-67
2023/06/08 01:56:33;;;;;;;7.30;2.72;;;;;;;10.55;100.00;101916.69;5106227;28;20509;-67
2023/06/08 01:59:00;;;;;;;7.80;3.10;;;;;;;10.60;100.00;101922.72;5093058;28;20040;-68
2023/06/08 02:01:27;;;;;;;7.65;3.22;;;;;;;10.63;100.00;101915.66;5107891;28;20047;-68
2023/06/08 02:03:54;;;;;;;7.97;3.25;;;;;;;10.51;100.00;101905.41;5100254;28;20048;-68
2023/06/08 02:06:21;;;;;;;7.82;2.83;;;;;;;10.52;100.00;101912.38;5101934;28;20592;-67
2023/06/08 02:08:48;;;;;;;7.70;2.85;;;;;;;10.70;100.00;101915.56;5105477;28;20561;-67
2023/06/08 02:11:14;;;;;;;9.10;2.90;;;;;;;10.61;100.00;101891.25;5110242;28;20048;-67
2023/06/08 02:13:44;;;;;;;8.48;2.90;;;;;;;10.58;100.00;101912.25;5110042;28;20374;-67
2023/06/08 02:16:11;;;;;;;7.85;3.20;;;;;;;10.54;100.00;101907.97;5103175;28;20059;-67
2023/06/08 02:18:40;;;;;;;7.13;2.90;;;;;;;10.46;100.00;101907.25;5110985;28;20051;-67
2023/06/08 02:21:08;;;;;;;8.23;3.33;;;;;;;10.54;100.00;101913.22;5104009;27;20387;-67
2023/06/08 02:23:35;;;;;;;7.60;2.95;;;;;;;10.56;100.00;101903.56;5092159;28;20058;-67
2023/06/08 02:26:03;;;;;;;7.63;2.70;;;;;;;10.81;100.00;101913.59;5105402;27;20101;-67
2023/06/08 02:28:30;;;;;;;9.15;3.17;;;;;;;10.75;100.00;101891.00;5108617;28;20416;-68
2023/06/08 02:30:57;;;;;;;10.73;3.05;;;;;;;10.63;100.00;101896.47;5110169;28;20158;-67
2023/06/08 02:33:24;;;;;;;9.20;3.30;;;;;;;10.44;100.00;101895.94;5110436;27;20043;-68
2023/06/08 02:35:51;;;;;;;7.93;2.90;;;;;;;10.52;100.00;101890.59;5109311;28;20419;-67
2023/06/08 02:38:18;;;;;;;6.20;2.60;;;;;;;10.74;100.00;101894.50;5105570;28;20561;-67
2023/06/08 02:40:44;;;;;;;7.50;2.90;;;;;;;10.64;100.00;101887.69;5098333;28;20066;-67
2023/06/08 02:43:11;;;;;;;7.22;3.08;;;;;;;10.54;100.00;101892.28;5110101;28;20043;-67
2023/06/08 02:45:39;;;;;;;8.50;3.08;;;;;;;10.52;100.00;101886.19;5108537;28;20043;-67
2023/06/08 02:48:06;;;;;;;8.10;2.92;;;;;;;10.52;100.00;101890.59;5107387;28;20054;-66
2023/06/08 02:50:32;;;;;;;8.10;3.13;;;;;;;10.32;100.00;101883.94;5108971;28;20092;-66
2023/06/08 02:52:59;;;;;;;8.18;3.08;;;;;;;10.36;100.00;101880.38;5109148;28;20052;-67
2023/06/08 02:55:28;;;;;;;8.35;3.50;;;;;;;10.52;100.00;101887.97;5106895;28;20575;-67
2023/06/08 02:57:56;;;;;;;8.73;3.40;;;;;;;10.39;100.00;101890.81;5103654;28;20051;-67
2023/06/08 03:00:23;;;;;;;6.72;2.55;;;;;;;10.31;100.00;101891.81;5104810;28;20083;-67
2023/06/08 03:02:50;;;;;;;8.15;3.13;;;;;;;10.29;100.00;101872.63;5095568;28;20070;-67
2023/06/08 03:05:17;;;;;;;8.25;2.83;;;;;;;10.57;100.00;101886.09;5109193;28;20487;-67
2023/06/08 03:07:43;;;;;;;8.18;3.17;;;;;;;10.55;100.00;101880.91;5105012;28;20161;-67
2023/06/08 03:10:10;;;;;;;7.80;3.22;;;;;;;10.37;100.00;101876.88;5109671;28;20123;-67
2023/06/08 03:12:37;;;;;;;6.82;2.80;;;;;;;10.40;100.00;101875.97;5109648;28;20497;-67
2023/06/08 03:15:04;;;;;;;9.50;3.75;;;;;;;10.54;100.00;101868.69;5108870;28;20134;-67
2023/06/08 03:17:32;;;;;;;8.15;3.08;;;;;;;10.58;100.00;101879.97;5110447;28;20189;-67
2023/06/08 03:19:59;;;;;;;7.90;3.20;;;;;;;10.55;100.00;101866.94;5108361;28;20048;-67
2023/06/08 03:22:26;;;;;;;7.85;3.55;;;;;;;10.48;100.00;101871.41;5104584;28;20055;-67
2023/06/08 03:24:54;;;;;;;9.65;3.80;;;;;;;10.22;100.00;101875.38;5108449;28;20441;-67
2023/06/08 03:27:20;;;;;;;7.85;3.47;;;;;;;9.91;100.00;101877.63;5104117;28;20079;-67
2023/06/08 03:29:47;;;;;;;7.68;3.17;;;;;;;10.03;100.00;101882.66;5104137;28;20167;-67
2023/06/08 03:32:14;;;;;;;9.57;3.85;;;;;;;10.09;100.00;101871.22;5109737;28;20051;-67
2023/06/08 03:34:44;;;;;;;7.88;3.28;;;;;;;10.20;100.00;101865.84;5109438;28;20134;-67
2023/06/08 03:37:11;;;;;;;7.05;2.80;;;;;;;10.14;100.00;101865.94;5109148;28;20724;-67
2023/06/08 03:39:38;;;;;;;8.32;3.15;;;;;;;10.37;100.00;101874.25;5109067;28;20544;-67
2023/06/08 03:42:05;;;;;;;8.95;3.45;;;;;;;10.13;100.00;101875.53;5109143;28;20524;-67
2023/06/08 03:44:32;;;;;;;9.05;2.90;;;;;;;10.33;100.00;101874.34;5097103;28;20054;-67
2023/06/08 03:46:59;;;;;;;7.10;2.83;;;;;;;10.45;100.00;101881.97;5108619;28;20051;-67
2023/06/08 03:49:26;;;;;;;7.35;2.90;;;;;;;10.25;100.00;101875.31;5110763;28;20068;-67
2023/06/08 03:51:52;;;;;;;8.25;3.20;;;;;;;10.02;100.00;101869.59;5111692;28;20051;-67
2023/06/08 03:54:20;;;;;;;6.47;2.42;;;;;;;10.35;100.00;101870.78;5113397;27;20083;-66
2023/06/08 03:56:47;;;;;;;7.78;2.80;;;;;;;10.43;100.00;101879.38;5109997;28;20044;-67
2023/06/08 03:59:14;;;;;;;8.43;3.00;;;;;;;10.42;100.00;101864.56;5108871;28;20058;-67
2023/06/08 04:01:41;;;;;;;7.90;2.83;;;;;;;10.52;100.00;101877.50;5113589;28;20051;-67
2023/06/08 04:04:08;;;;;;;8.27;2.50;;;;;;;10.79;100.00;101870.84;5113169;28;20443;-67
2023/06/08 04:06:38;;;;;;;7.15;2.45;;;;;;;10.86;100.00;101861.94;5112664;28;20423;-67
2023/06/08 04:09:05;;;;;;;6.50;2.55;;;;;;;10.69;100.00;101862.28;5112795;28;20423;-67
2023/06/08 04:11:31;;;;;;;6.82;2.63;;;;;;;10.41;100.00;101851.50;5114342;28;20127;-67
2023/06/08 04:13:58;;;;;;;6.68;2.90;;;;;;;10.03;100.00;101839.94;5114302;28;20039;-67
2023/06/08 04:16:25;;;;;;;7.75;2.97;;;;;;;10.31;100.00;101856.03;5113627;28;20143;-67
2023/06/08 04:18:53;;;;;;;7.82;3.00;;;;;;;10.47;100.00;101843.53;5110902;28;20126;-67
2023/06/08 04:21:21;;;;;;;7.85;2.80;;;;;;;10.45;100.00;101845.31;5108727;27;20068;-67
2023/06/08 04:23:48;;;;;;;8.73;3.03;;;;;;;10.35;100.00;101844.63;5108342;28;20097;-67
2023/06/08 04:26:16;;;;;;;7.97;2.92;;;;;;;10.25;100.00;101843.91;5110857;28;20047;-67
2023/06/08 04:28:44;;;;;;;6.32;2.42;;;;;;;10.73;100.00;101847.38;5111788;28;20055;-67
2023/06/08 04:31:10;;;;;;;6.97;2.20;;;;;;;11.05;100.00;101851.06;5108015;28;20404;-67
2023/06/08 04:33:37;;;;;;;7.53;2.80;;;;;;;11.23;100.00;101850.69;5102723;28;20062;-68
2023/06/08 04:36:04;;;;;;;8.38;3.00;;;;;;;11.02;100.00;101860.72;5110059;28;20134;-68
2023/06/08 04:38:31;;;;;;;6.65;2.60;;;;;;;10.88;100.00;101868.03;5109610;28;20046;-68
2023/06/08 04:41:01;;;;;;;8.80;2.97;;;;;;;10.93;100.00;101847.81;5111128;28;20046;-68
2023/06/08 04:43:31;;;;;;;7.07;2.60;;;;;;;11.09;100.00;101839.66;5111601;28;20663;-68
2023/06/08 04:45:59;;;;;;;8.63;3.47;;;;;;;10.88;100.00;101841.81;5109734;27;20055;-68
2023/06/08 04:48:27;;;;;;;9.05;3.25;;;;;;;10.58;100.00;101844.16;5112541;28;20047;-68
2023/06/08 04:51:03;;;;;;;7.45;2.70;;;;;;;10.99;100.00;101846.81;5112007;28;20141;-68
2023/06/08 04:53:34;;;;;;;8.43;3.15;;;;;;;11.08;100.00;101848.38;5112429;28;20531;-68
2023/06/08 04:56:02;;;;;;;7.75;3.00;;;;;;;10.81;100.00;101855.94;5111307;28;20052;-67
2023/06/08 04:58:30;;;;;;;9.75;3.33;;;;;;;10.78;100.00;101846.41;5111059;28;20135;-68
2023/06/08 05:00:57;;;;;;;8.63;3.67;;;;;;;10.95;100.00;101845.19;5101500;28;20040;-68
2023/06/08 05:03:27;;;;;;;7.95;3.28;;;;;;;10.83;100.00;101841.91;5103697;28;20047;-68
2023/06/08 05:05:55;;;;;;;8.35;3.20;;;;;;;10.79;100.00;101845.50;5106822;28;20055;-68
2023/06/08 05:08:22;;;;;;;7.78;3.00;;;;;;;10.90;100.00;101837.41;5110428;28;20043;-68
2023/06/08 05:10:48;;;;;;;8.75;3.67;;;;;;;10.53;100.00;101830.31;5110549;27;20051;-68
2023/06/08 05:13:15;;;;;;;7.78;3.58;;;;;;;10.24;100.00;101839.56;5112620;28;20054;-68
2023/06/08 05:15:42;;;;;;;8.50;3.60;;;;;;;10.26;100.00;101852.63;5111526;28;20043;-67
2023/06/08 05:18:09;;;;;;;10.27;4.55;;;;;;;10.19;100.00;101832.69;5111024;28;20073;-68
2023/06/08 05:20:36;;;;;;;9.43;3.60;;;;;;;10.52;100.00;101846.06;5111626;28;20040;-68
2023/06/08 05:23:02;;;;;;;8.52;3.20;;;;;;;10.39;100.00;101829.72;5109534;27;20048;-67
2023/06/08 05:25:29;;;;;;;8.07;3.00;;;;;;;10.62;100.00;101837.13;5111444;28;20142;-67
2023/06/08 05:27:57;;;;;;;8.13;3.42;;;;;;;10.76;100.00;101848.16;5111929;28;20051;-67
2023/06/08 05:30:23;;;;;;;7.88;2.92;;;;;;;10.90;100.00;101850.50;5110620;28;20051;-67
2023/06/08 05:32:51;;;;;;;7.53;3.15;;;;;;;10.94;100.00;101848.69;5111436;28;20058;-67
2023/06/08 05:35:18;;;;;;;9.20;3.90;;;;;;;10.82;100.00;101837.56;5111109;27;20101;-67
2023/06/08 05:37:45;;;;;;;8.48;3.38;;;;;;;10.80;100.00;101818.41;5109372;28;20412;-67
2023/06/08 05:40:12;;;;;;;6.35;2.20;;;;;;;11.01;100.00;101835.44;5106798;28;20047;-66
2023/06/08 05:42:39;;;;;;;8.50;3.20;;;;;;;10.98;100.00;101845.13;5107455;28;20047;-67
2023/06/08 05:45:06;;;;;;;9.07;2.88;;;;;;;10.79;100.00;101844.63;5110557;28;20048;-67
2023/06/08 05:47:33;;;;;;;7.75;3.05;;;;;;;10.74;100.00;101839.47;5109171;27;20051;-67
2023/06/08 05:50:01;;;;;;;10.70;3.20;;;;;;;11.38;100.00;101837.22;5104935;28;20230;-66
2023/06/08 05:52:30;;;;;;;7.47;2.78;;;;;;;11.57;100.00;101842.03;5115314;27;20047;-66
2023/06/08 05:54:58;;;;;;;8.45;3.38;;;;;;;11.46;100.00;101838.81;5111588;28;20055;-67
2023/06/08 05:57:24;;;;;;;7.57;3.05;;;;;;;11.58;100.00;101839.38;5107068;28;20359;-66
2023/06/08 05:59:51;;;;;;;8.55;3.72;;;;;;;11.54;100.00;101835.09;5102258;28;20040;-66
2023/06/08 06:02:18;;;;;;;7.97;3.00;;;;;;;11.79;100.00;101834.47;5108481;28;20530;-67
2023/06/08 06:04:45;;;;;;;8.25;3.28;;;;;;;11.76;100.00;101821.44;5110622;28;20047;-67
2023/06/08 06:07:12;;;;;;;7.13;2.40;;;;;;;11.92;100.00;101835.94;5107607;27;20455;-67
2023/06/08 06:09:39;;;;;;;8.02;3.17;;;;;;;12.15;100.00;101840.56;5107985;28;20062;-66
2023/06/08 06:12:07;;;;;;;9.10;3.45;;;;;;;12.18;100.00;101844.03;5107634;28;20727;-66
2023/06/08 06:14:41;;;;;;;8.00;3.05;;;;;;;12.17;100.00;101850.19;5109917;28;20047;-66
2023/06/08 06:17:09;;;;;;;8.90;3.55;;;;;;;11.72;100.00;101848.63;5108932;28;20126;-66
2023/06/08 06:19:37;;;;;;;8.82;3.58;;;;;;;11.65;100.00;101836.56;5108280;28;20052;-66
2023/06/08 06:22:06;;;;;;;8.98;3.95;;;;;;;11.80;100.00;101843.22;5110347;28;20104;-66
2023/06/08 06:24:33;;;;;;;8.95;4.00;;;;;;;11.69;100.00;101851.38;5110498;27;20043;-66
2023/06/08 06:27:00;;;;;;;8.20;3.40;;;;;;;12.00;100.00;101848.00;5109175;27;20101;-66
2023/06/08 06:29:27;;;;;;;9.07;3.42;;;;;;;12.00;100.00;101854.09;5103086;28;20040;-65
2023/06/08 06:31:54;;;;;;;7.40;2.70;;;;;;;12.36;100.00;101846.16;5110048;27;20051;-66
2023/06/08 06:34:21;;;;;;;9.80;3.45;;;;;;;12.71;100.00;101862.69;5108898;28;20077;-66
2023/06/08 06:36:48;;;;;;;7.43;2.65;;;;;;;12.93;100.00;101855.06;5107973;28;20043;-66
2023/06/08 06:39:15;;;;;;;7.40;2.83;;;;;;;12.82;100.00;101849.22;5103489;28;20044;-66
2023/06/08 06:41:42;;;;;;;8.82;3.58;;;;;;;12.46;100.00;101852.88;5107484;28;20044;-66
2023/06/08 06:44:08;;;;;;;8.13;3.38;;;;;;;12.60;100.00;101867.41;5108998;28;20144;-67
2023/06/08 06:46:35;;;;;;;9.30;3.45;;;;;;;12.54;100.00;101863.19;5107307;28;20236;-66
2023/06/08 06:49:02;;;;;;;9.25;3.30;;;;;;;12.60;100.00;101854.25;5109551;28;20051;-66
2023/06/08 06:51:29;;;;;;;8.85;3.28;;;;;;;12.59;100.00;101857.78;5109369;28;20303;-66
2023/06/08 06:53:56;;;;;;;10.75;3.78;;;;;;;12.44;100.00;101859.94;5110671;28;20051;-66
2023/06/08 06:56:22;;;;;;;9.10;3.55;;;;;;;12.52;100.00;101859.75;5109550;27;20130;-66
2023/06/08 06:58:49;;;;;;;9.80;3.75;;;;;;;12.59;100.00;101856.03;5110289;28;20052;-66
2023/06/08 07:01:16;;;;;;;11.55;3.85;;;;;;;12.81;100.00;101861.53;5109525;28;20035;-66
2023/06/08 07:03:44;;;;;;;9.35;3.55;;;;;;;12.97;100.00;101863.72;5110626;28;20122;-66
2023/06/08 07:06:11;;;;;;;9.43;3.75;;;;;;;13.06;100.00;101858.16;5109396;28;20443;-67
2023/06/08 07:08:38;;;;;;;9.50;3.58;;;;;;;13.24;100.00;101862.88;5109839;28;20044;-66
2023/06/08 07:11:05;;;;;;;10.55;3.42;;;;;;;13.22;100.00;101851.53;5110184;28;20077;-66
2023/06/08 07:13:32;;;;;;;8.00;3.35;;;;;;;13.42;100.00;101855.34;5110864;28;20126;-67
2023/06/08 07:16:00;;;;;;;12.32;3.30;;;;;;;13.45;100.00;101860.50;5103065;28;20039;-67
2023/06/08 07:18:27;;;;;;;7.88;3.03;;;;;;;13.52;100.00;101853.28;5110870;28;20492;-67
2023/06/08 07:20:54;;;;;;;9.70;3.15;;;;;;;13.56;100.00;101847.00;5110637;28;20058;-67
2023/06/08 07:23:21;;;;;;;7.40;2.97;;;;;;;13.89;100.00;101847.66;5110503;28;20386;-67
2023/06/08 07:26:08;;;;;;;8.00;3.15;;;;;;;14.08;100.00;101841.75;5109224;28;20366;-66
2023/06/08 07:28:55;;;;;;;11.90;4.50;;;;;;;13.56;100.00;101841.75;5108082;28;20055;-67
2023/06/08 07:31:23;;;;;;;7.68;3.15;;;;;;;13.73;100.00;101844.69;5108403;28;20091;-66
2023/06/08 07:33:50;;;;;;;8.02;3.03;;;;;;;14.53;100.00;101849.81;5109881;28;20044;-67
2023/06/08 07:36:17;;;;;;;8.65;3.58;;;;;;;15.56;100.00;101855.56;5108929;28;20058;-66
2023/06/08 07:38:44;;;;;;;10.05;3.88;;;;;;;16.38;100.00;101846.88;5109053;28;20051;-67
2023/06/08 07:41:11;;;;;;;8.88;3.92;;;;;;;17.14;100.00;101857.53;5110216;28;20487;-66
2023/06/08 07:43:39;;;;;;;7.63;2.70;;;;;;;17.99;100.00;101852.50;5110060;28;20405;-67
2023/06/08 07:46:06;;;;;;;8.93;2.85;;;;;;;18.13;100.00;101853.56;5109669;28;20142;-66
2023/06/08 07:48:33;;;;;;;9.90;4.03;;;;;;;17.67;100.00;101854.09;5099218;28;20127;-66
2023/06/08 07:51:00;;;;;;;10.68;3.90;;;;;;;17.88;100.00;101856.63;5101168;28;20150;-66
2023/06/08 07:53:34;;;;;;;8.32;2.72;;;;;;;18.39;100.00;101857.50;5105147;28;20060;-67
2023/06/08 07:56:02;;;;;;;5.90;2.10;;;;;;;18.29;100.00;101857.16;5097589;28;20047;-67
2023/06/08 07:58:30;;;;;;;6.80;2.40;;;;;;;18.43;100.00;101853.75;5107120;28;20072;-67
2023/06/08 08:01:00;;;;;;;7.07;1.95;;;;;;;18.24;100.00;101853.00;5106867;28;20125;-67
2023/06/08 08:03:28;;;;;;;5.53;1.90;;;;;;;18.24;100.00;101853.00;5109846;28;20052;-67
2023/06/08 08:05:55;;;;;;;6.18;2.03;;;;;;;18.24;100.00;101855.66;5100159;28;20127;-67
2023/06/08 08:08:22;;;;;;;5.38;2.00;;;;;;;18.61;100.00;101859.91;5094674;28;20058;-66
2023/06/08 08:10:49;;;;;;;5.93;2.10;;;;;;;18.51;100.00;101851.56;5106174;28;20101;-67
2023/06/08 08:13:16;;;;;;;6.68;1.95;;;;;;;18.15;100.00;101849.03;5101407;28;20097;-67
2023/06/08 08:15:42;;;;;;;5.50;1.67;;;;;;;18.34;100.00;101851.59;5105106;28;20127;-67
2023/06/08 08:18:09;;;;;;;9.52;2.60;;;;;;;18.38;100.00;101846.06;5100705;28;20056;-67
2023/06/08 08:20:36;;;;;;;8.70;2.22;;;;;;;18.34;100.00;101849.81;5108026;28;20475;-66
2023/06/08 08:23:03;;;;;;;5.53;2.00;;;;;;;18.13;100.00;101854.44;5090331;28;20044;-67
2023/06/08 08:25:30;;;;;;;5.43;1.83;;;;;;;18.00;100.00;101851.53;5102268;28;20044;-67
2023/06/08 08:27:57;;;;;;;8.05;2.00;;;;;;;18.09;100.00;101858.16;5105756;28;20459;-67
2023/06/08 08:30:24;;;;;;;7.13;1.80;;;;;;;18.39;100.00;101865.47;5104627;28;20405;-67
2023/06/08 08:32:51;;;;;;;6.13;2.00;;;;;;;18.43;100.00;101861.72;5107064;28;20507;-67
2023/06/08 08:35:17;;;;;;;6.75;2.38;;;;;;;18.33;100.00;101849.91;5110508;28;20061;-67
2023/06/08 08:37:45;;;;;;;7.50;2.40;;;;;;;18.57;100.00;101864.50;5112208;28;20061;-66
2023/06/08 08:40:13;;;;;;;8.55;2.38;;;;;;;18.93;100.00;101850.22;5112484;28;20130;-66
2023/06/08 08:42:46;;;;;;;6.05;2.17;;;;;;;19.22;100.00;101861.00;5112880;28;20055;-66
2023/06/08 08:45:15;;;;;;;5.97;2.10;;;;;;;18.82;100.00;101859.69;5112639;28;20499;-66
2023/06/08 08:47:43;;;;;;;7.97;2.40;;;;;;;18.97;100.00;101858.84;5113675;28;20055;-66
2023/06/08 08:50:16;;;;;;;7.55;2.25;;;;;;;18.39;100.00;101853.06;5110355;28;20096;-67
2023/06/08 08:52:48;;;;;;;5.28;1.80;;;;;;;18.62;100.00;101866.91;5113432;28;20066;-66
2023/06/08 08:55:16;;;;;;;6.18;2.08;;;;;;;18.65;100.00;101850.81;5112546;28;20051;-66
2023/06/08 08:58:01;;;;;;;5.43;1.70;;;;;;;18.32;100.00;101851.66;5109870;28;20481;-66
2023/06/08 09:00:31;;;;;;;8.65;2.17;;;;;;;18.24;100.00;101845.06;5111933;28;20051;-66
2023/06/08 09:03:01;;;;;;;7.75;2.15;;;;;;;18.35;100.00;101838.25;5112029;28;20055;-66
2023/06/08 09:05:28;;;;;;;6.50;1.90;;;;;;;18.51;100.00;101842.75;5109319;28;20109;-66
2023/06/08 09:07:55;;;;;;;6.15;1.85;;;;;;;18.85;100.00;101843.59;5112643;28;20101;-67
2023/06/08 09:10:25;;;;;;;6.25;2.10;;;;;;;18.51;100.00;101833.00;5110874;28;20382;-66
2023/06/08 09:12:59;;;;;;;7.20;2.28;;;;;;;18.19;100.00;101843.50;5112823;28;20055;-66
2023/06/08 09:15:34;;;;;;;8.20;2.67;;;;;;;18.32;100.00;101853.47;5110452;28;20043;-67
2023/06/08 09:18:15;;;;;;;6.43;2.20;;;;;;;18.51;100.00;101840.09;5112976;28;20452;-66
2023/06/08 09:20:43;;;;;;;4.97;1.73;;;;;;;18.44;100.00;101854.63;5112606;27;20055;-66
2023/06/08 09:23:25;;;;;;;6.28;1.88;;;;;;;18.90;100.00;101846.88;5111278;28;20472;-67
2023/06/08 09:25:52;;;;;;;6.93;2.13;;;;;;;18.52;100.00;101837.38;5108519;28;20158;-67
2023/06/08 09:28:28;;;;;;;6.10;1.92;;;;;;;17.68;100.00;101839.06;5112208;28;20131;-67
2023/06/08 09:31:00;;;;;;;6.32;2.38;;;;;;;17.77;100.00;101835.94;5098738;27;20471;-67
2023/06/08 09:33:29;;;;;;;7.18;2.00;;;;;;;16.87;100.00;101828.81;5102239;28;20039;-67
2023/06/08 09:35:56;;;;;;;6.40;2.00;;;;;;;17.08;100.00;101838.38;5108829;28;20494;-67
2023/06/08 09:38:26;;;;;;;7.65;1.90;;;;;;;17.16;100.00;101835.38;5111661;28;20085;-67
2023/06/08 09:41:16;;;;;;;11.07;2.47;;;;;;;17.23;100.00;101833.31;5111973;28;20456;-67
2023/06/08 09:43:45;;;;;;;5.60;1.83;;;;;;;16.62;100.00;101837.00;5096340;28;20047;-67
2023/06/08 09:46:17;;;;;;;5.78;2.17;;;;;;;16.73;100.00;101834.69;5107546;28;20413;-67
2023/06/08 09:48:53;;;;;;;6.03;2.03;;;;;;;17.14;100.00;101829.31;5108908;28;20048;-67
2023/06/08 09:51:25;;;;;;;6.72;2.10;;;;;;;17.29;100.00;101830.34;5108889;28;20044;-68
2023/06/08 09:53:56;;;;;;;5.93;1.77;;;;;;;17.14;100.00;101812.56;5108490;28;20076;-67
2023/06/08 09:56:25;;;;;;;8.55;2.00;;;;;;;17.63;100.00;101818.94;5109030;28;20062;-67
2023/06/08 09:58:56;;;;;;;6.30;1.80;;;;;;;17.11;100.00;101829.44;5112118;28;20047;-67
2023/06/08 10:01:29;;;;;;;6.70;2.40;;;;;;;17.17;100.00;101818.56;5106126;28;20047;-67
2023/06/08 10:03:59;;;;;;;5.70;2.08;;;;;;;17.17;100.00;101820.34;5111161;28;20097;-67
2023/06/08 10:06:31;;;;;;;8.48;2.17;;;;;;;17.04;100.00;101820.94;5107868;28;20051;-67
2023/06/08 10:08:59;;;;;;;6.32;1.92;;;;;;;17.50;100.00;101812.56;5111751;28;20138;-67
2023/06/08 10:11:28;;;;;;;6.50;1.92;;;;;;;17.63;100.00;101818.94;5111740;28;20122;-67
2023/06/08 10:13:56;;;;;;;5.65;1.83;;;;;;;17.48;100.00;101829.47;5112019;28;20071;-68
2023/06/08 10:16:25;;;;;;;9.15;2.25;;;;;;;17.42;100.00;101806.78;5111146;28;20134;-67
2023/06/08 10:18:53;;;;;;;7.22;1.95;;;;;;;17.77;100.00;101812.94;5112527;28;20101;-67
2023/06/08 10:21:20;;;;;;;6.50;1.95;;;;;;;17.71;100.00;101815.91;5109174;28;20040;-67
2023/06/08 10:23:47;;;;;;;7.55;2.08;;;;;;;17.25;100.00;101821.69;5110689;28;20181;-67
2023/06/08 10:26:14;;;;;;;7.07;1.77;;;;;;;18.01;100.00;101817.97;5107886;28;20047;-68
2023/06/08 10:29:06;;;;;;;4.85;1.52;;;;;;;17.71;100.00;101826.53;5107527;28;20129;-68
2023/06/08 10:31:47;;;;;;;5.72;1.75;;;;;;;17.72;100.00;101814.13;5097907;28;20055;-67
2023/06/08 10:34:16;;;;;;;5.55;2.03;;;;;;;17.52;100.00;101821.28;5110940;28;20381;-67
2023/06/08 10:36:44;;;;;;;8.40;2.17;;;;;;;17.89;100.00;101827.41;5108730;28;20043;-68
2023/06/08 10:39:13;;;;;;;6.20;2.10;;;;;;;17.96;100.00;101807.59;5110252;28;20138;-67
2023/06/08 10:42:00;;;;;;;6.78;2.28;;;;;;;17.84;100.00;101813.50;5111199;28;20044;-68
2023/06/08 10:44:36;;;;;;;6.35;2.00;;;;;;;18.21;100.00;101814.28;5110338;28;20061;-67
2023/06/08 10:47:08;;;;;;;7.13;1.90;;;;;;;18.02;100.00;101812.59;5109612;28;20055;-68
2023/06/08 10:49:37;;;;;;;5.10;1.80;;;;;;;18.27;100.00;101805.13;5110404;28;20089;-67
2023/06/08 10:52:09;;;;;;;5.80;1.80;;;;;;;18.85;100.00;101814.41;5106344;28;20113;-67
2023/06/08 10:54:56;;;;;;;5.63;2.07;;;;;;;18.77;99.44;101814.81;5103361;28;20138;-67
2023/06/08 10:58:05;;;;;;;6.80;2.03;;;;;;;18.00;100.00;101810.94;5108670;28;20051;-68
2023/06/08 11:00:33;;;;;;;5.75;1.88;;;;;;;18.33;100.00;101810.13;5111291;28;20047;-68
2023/06/08 11:03:04;;;;;;;5.55;2.03;;;;;;;18.24;100.00;101805.28;5110251;28;20122;-68
2023/06/08 11:05:35;;;;;;;5.82;1.88;;;;;;;18.64;100.00;101814.63;5110114;28;20099;-67
2023/06/08 11:08:04;;;;;;;5.45;1.80;;;;;;;18.25;100.00;101810.50;5111080;28;20112;-68
2023/06/08 11:10:32;;;;;;;5.55;1.77;;;;;;;18.29;100.00;101814.75;5110358;28;20127;-67
2023/06/08 11:13:09;;;;;;;6.20;1.50;;;;;;;18.43;100.00;101810.47;5111348;28;20126;-67
2023/06/08 11:15:37;;;;;;;6.45;1.92;;;;;;;18.26;100.00;101790.19;5109655;28;20139;-68
2023/06/08 11:18:07;;;;;;;8.07;2.20;;;;;;;18.24;100.00;101806.16;5108362;28;20101;-67
2023/06/08 11:20:38;;;;;;;7.50;2.20;;;;;;;18.56;100.00;101808.91;5107023;28;20048;-68
2023/06/08 11:23:07;;;;;;;7.72;2.10;;;;;;;18.13;100.00;101804.09;5110237;28;20039;-68
2023/06/08 11:25:35;;;;;;;6.25;2.00;;;;;;;18.45;100.00;101806.81;5109020;28;20449;-67